BCN weather

Barcelona International Airport
Barcelona, Catalonia, Spain

Public forecast

Using degrees Celsius for public forecast. Weather courtesy of forecast.io.

METAR (pilot weather report)

Retrieved 2017/06/27 03:00 UTC (3 minutes ago):

LEBL 270300Z 04005KT 9999 FEW014 24/21 Q1009 NOSIG

TAF (pilot weather forecast)

Forecast is more than 12 hours old.

Retrieved 2017/06/26 00:27 UTC (1 day ago):

TAF LEBL 262300Z 2700/2724 VRB04KT 9999 FEW030 TX29/2712Z TN23/2706Z BECMG 2707/2709 12010KT PROB30 TEMPO 2712/2718 FEW050CB BECMG 2718/2720 VRB03KT